Time;durP1;ratioP1;P1;durP2;ratioP2;P2;SDS_P1;SDS_P2;PMS_P1;PMS_P2;Temp;Humidity;BMP_temperature;BMP_pressure;BME280_temperature;BME280_humidity;BME280_pressure;Samples;Min_cycle;Max_cycle;Signal;HPM_P1;HPM_P2
2023/08/01 00:02:57;;;;;;;3.62;2.62;;;;;;;19.58;100.00;99560.25;5056790;57;1215835;-65
2023/08/01 00:08:03;;;;;;;8.65;2.87;;;;;;;19.57;100.00;99551.87;5057803;57;1138751;-65
2023/08/01 00:13:10;;;;;;;6.10;2.70;;;;;;;19.53;100.00;99540.75;5057895;57;1138816;-65
2023/08/01 00:18:15;;;;;;;4.53;2.90;;;;;;;19.51;100.00;99525.37;5077389;57;1139011;-65
2023/08/01 00:23:21;;;;;;;3.80;2.80;;;;;;;19.49;100.00;99507.78;5017836;57;1138903;-65
2023/08/01 00:28:27;;;;;;;10.72;2.77;;;;;;;19.48;100.00;99504.79;5027474;56;1139011;-67
2023/08/01 00:33:33;;;;;;;12.88;3.50;;;;;;;19.48;100.00;99496.74;5098799;56;1140761;-66
2023/08/01 00:38:39;;;;;;;4.47;3.37;;;;;;;19.45;100.00;99484.56;5138708;56;1140737;-66
2023/08/01 00:43:44;;;;;;;5.72;2.33;;;;;;;19.45;100.00;99481.05;5140778;56;1138583;-65
2023/08/01 00:48:50;;;;;;;3.04;2.62;;;;;;;19.45;100.00;99472.48;5142006;56;1138620;-65
2023/08/01 00:53:56;;;;;;;5.25;2.90;;;;;;;19.46;100.00;99462.59;5200979;56;1138803;-65
2023/08/01 00:59:02;;;;;;;5.92;2.60;;;;;;;19.46;100.00;99453.20;5152828;56;1138936;-66
2023/08/01 01:04:09;;;;;;;4.90;2.30;;;;;;;19.46;100.00;99451.35;5121252;56;1138949;-65
2023/08/01 01:09:21;;;;;;;6.75;3.17;;;;;;;19.47;100.00;99448.16;5140897;56;1138897;-65
2023/08/01 01:14:28;;;;;;;3.95;2.67;;;;;;;19.46;100.00;99443.82;5092388;56;1138951;-65
2023/08/01 01:19:34;;;;;;;6.08;2.75;;;;;;;19.46;100.00;99433.09;5056793;56;1138714;-66
2023/08/01 01:24:41;;;;;;;3.58;2.52;;;;;;;19.49;100.00;99425.51;5073199;57;1139029;-66
2023/08/01 01:29:49;;;;;;;5.10;3.12;;;;;;;19.52;100.00;99421.59;5137491;56;1138777;-65
2023/08/01 01:34:55;;;;;;;3.05;2.55;;;;;;;19.53;100.00;99416.03;5131634;56;1138896;-65
2023/08/01 01:40:01;;;;;;;9.40;3.05;;;;;;;19.54;100.00;99404.28;5154207;56;1138650;-66
2023/08/01 01:45:07;;;;;;;6.87;2.52;;;;;;;19.55;100.00;99390.36;5128100;56;1138915;-65
2023/08/01 01:50:13;;;;;;;5.80;2.80;;;;;;;19.50;100.00;99381.57;5147323;56;1138717;-66
2023/08/01 01:55:18;;;;;;;7.35;2.75;;;;;;;19.51;100.00;99361.77;5137058;56;1139255;-66
2023/08/01 02:00:24;;;;;;;5.87;2.90;;;;;;;19.54;100.00;99371.27;5042637;56;1139091;-66
2023/08/01 02:05:30;;;;;;;5.37;2.45;;;;;;;19.50;100.00;99364.14;5096985;56;1139028;-65
2023/08/01 02:10:36;;;;;;;2.90;2.60;;;;;;;19.43;100.00;99353.87;5091970;56;1138641;-65
2023/08/01 02:15:41;;;;;;;5.03;2.50;;;;;;;19.38;100.00;99346.98;5066301;56;1138668;-66
2023/08/01 02:20:47;;;;;;;4.65;2.55;;;;;;;19.37;100.00;99337.80;5053958;57;1138703;-66
2023/08/01 02:25:53;;;;;;;3.20;2.17;;;;;;;19.36;100.00;99323.56;5072147;56;1139194;-66
2023/08/01 02:30:59;;;;;;;3.92;2.72;;;;;;;19.33;100.00;99316.75;5110423;56;1138735;-66
2023/08/01 02:36:05;;;;;;;3.83;2.40;;;;;;;19.33;100.00;99309.22;5065927;57;1138860;-66
2023/08/01 02:41:10;;;;;;;3.50;2.73;;;;;;;19.31;100.00;99300.03;5032867;57;1138790;-64
2023/08/01 02:46:16;;;;;;;4.03;2.33;;;;;;;19.31;100.00;99296.02;5084500;57;1138650;-66
2023/08/01 02:51:22;;;;;;;5.80;2.67;;;;;;;19.29;100.00;99291.88;5089095;57;1138724;-66
2023/08/01 02:56:28;;;;;;;3.70;2.17;;;;;;;19.27;100.00;99299.30;5119683;57;1138688;-65
2023/08/01 03:01:33;;;;;;;3.37;2.37;;;;;;;19.22;100.00;99301.79;5120956;56;1138750;-66
2023/08/01 03:06:39;;;;;;;9.75;3.25;;;;;;;19.15;100.00;99305.79;5059581;57;1138652;-66
2023/08/01 03:11:45;;;;;;;14.33;2.52;;;;;;;19.05;100.00;99301.34;5055595;56;1138644;-67
2023/08/01 03:16:51;;;;;;;5.06;2.60;;;;;;;19.03;100.00;99293.19;5060411;56;1141046;-66
2023/08/01 03:21:57;;;;;;;4.92;2.58;;;;;;;18.97;100.00;99292.14;5110859;56;1138947;-66
2023/08/01 03:27:03;;;;;;;4.33;2.60;;;;;;;18.85;100.00;99291.91;5087980;56;1138830;-66
2023/08/01 03:32:09;;;;;;;4.70;2.85;;;;;;;18.75;100.00;99280.77;5131550;56;1138856;-66
2023/08/01 03:37:14;;;;;;;9.68;3.55;;;;;;;18.61;100.00;99270.53;5195259;56;1138656;-65
2023/08/01 03:42:20;;;;;;;8.93;2.83;;;;;;;18.51;100.00;99266.52;5143415;55;1138949;-65
2023/08/01 03:47:25;;;;;;;5.70;2.70;;;;;;;18.47;100.00;99266.64;5097913;56;1138869;-65
2023/08/01 03:52:31;;;;;;;15.90;3.70;;;;;;;18.43;100.00;99256.83;5100101;56;1138720;-65
2023/08/01 03:57:38;;;;;;;7.70;3.30;;;;;;;18.42;100.00;99247.66;5043115;56;1140889;-66
2023/08/01 04:02:44;;;;;;;5.93;3.17;;;;;;;18.38;100.00;99249.08;5051131;57;1138841;-66
2023/08/01 04:07:50;;;;;;;8.78;3.25;;;;;;;18.40;100.00;99243.84;5088188;56;1138930;-65
2023/08/01 04:12:56;;;;;;;7.75;3.25;;;;;;;18.41;100.00;99241.48;5120812;56;1139032;-65
2023/08/01 04:18:01;;;;;;;7.95;3.30;;;;;;;18.34;100.00;99243.29;5074722;56;1139031;-66
2023/08/01 04:23:07;;;;;;;5.67;3.58;;;;;;;18.26;100.00;99241.63;5123863;56;1138867;-65
2023/08/01 04:28:13;;;;;;;3.30;3.00;;;;;;;18.18;100.00;99246.34;5066872;56;1138993;-68
2023/08/01 04:33:19;;;;;;;6.47;2.47;;;;;;;18.09;100.00;99242.16;5043824;56;1139172;-66
2023/08/01 04:38:24;;;;;;;3.55;2.80;;;;;;;17.99;100.00;99235.84;5044116;56;1138776;-66
2023/08/01 04:43:30;;;;;;;4.78;3.75;;;;;;;17.89;100.00;99228.67;5101625;56;1139008;-65
2023/08/01 04:48:36;;;;;;;8.00;3.40;;;;;;;17.81;100.00;99222.98;5086189;56;1138899;-65
2023/08/01 04:53:41;;;;;;;6.60;3.33;;;;;;;17.68;100.00;99222.91;5097858;56;1138820;-65
2023/08/01 04:58:47;;;;;;;5.75;3.05;;;;;;;17.54;100.00;99220.62;5098860;56;1138824;-65
2023/08/01 05:03:53;;;;;;;6.45;3.15;;;;;;;17.48;100.00;99214.72;5164796;56;1138882;-65
2023/08/01 05:08:58;;;;;;;7.08;3.25;;;;;;;17.51;100.00;99200.14;5106557;56;1138721;-66
2023/08/01 05:14:04;;;;;;;6.05;3.27;;;;;;;17.51;100.00;99196.13;5087410;56;1147310;-65
2023/08/01 05:19:10;;;;;;;5.00;2.75;;;;;;;17.56;100.00;99182.50;5132563;56;1139176;-66
2023/08/01 05:24:15;;;;;;;7.47;3.80;;;;;;;17.53;100.00;99175.38;5085499;56;1139156;-66
2023/08/01 05:29:21;;;;;;;6.15;3.40;;;;;;;17.58;100.00;99168.39;5102821;56;1139013;-66
2023/08/01 05:34:27;;;;;;;9.78;3.80;;;;;;;17.63;100.00;99171.83;5088225;56;1139607;-65
2023/08/01 05:39:32;;;;;;;13.00;3.52;;;;;;;17.71;100.00;99167.70;5094557;56;1152932;-65
2023/08/01 05:44:38;;;;;;;8.10;4.05;;;;;;;17.79;100.00;99152.81;5083754;56;1141544;-66
2023/08/01 05:49:44;;;;;;;5.70;3.85;;;;;;;17.83;100.00;99145.23;5102588;56;1139730;-66
2023/08/01 05:54:49;;;;;;;7.87;3.95;;;;;;;17.80;100.00;99143.77;5098436;56;1139586;-66
2023/08/01 05:59:55;;;;;;;4.97;3.47;;;;;;;17.82;100.00;99147.59;5147849;56;1138968;-67
2023/08/01 06:05:00;;;;;;;4.08;3.62;;;;;;;17.83;100.00;99150.06;5168849;56;1138601;-67
2023/08/01 06:10:07;;;;;;;5.85;3.72;;;;;;;17.82;100.00;99147.59;5156969;55;1138414;-66
2023/08/01 06:15:12;;;;;;;6.12;3.75;;;;;;;17.78;100.00;99136.96;5152644;56;1139469;-66
2023/08/01 06:20:18;;;;;;;8.03;3.25;;;;;;;17.79;100.00;99138.11;5045392;57;1139334;-67
2023/08/01 06:25:23;;;;;;;6.12;3.80;;;;;;;17.74;100.00;99146.40;5034344;58;1138726;-65
2023/08/01 06:30:29;;;;;;;7.83;3.98;;;;;;;17.71;100.00;99138.29;5110160;56;1138611;-65
2023/08/01 06:35:35;;;;;;;7.15;3.15;;;;;;;17.71;100.00;99130.78;5078845;56;1139119;-66
2023/08/01 06:40:40;;;;;;;6.60;3.30;;;;;;;17.72;100.00;99129.21;5111023;57;1138505;-66
2023/08/01 06:45:46;;;;;;;5.92;3.22;;;;;;;17.72;100.00;99119.85;5117215;56;1138773;-66
2023/08/01 06:50:52;;;;;;;4.70;3.17;;;;;;;17.69;100.00;99112.25;5172983;56;1138898;-66
2023/08/01 06:55:57;;;;;;;6.67;3.15;;;;;;;17.71;100.00;99112.89;5207273;56;1138785;-66
2023/08/01 07:01:03;;;;;;;9.68;3.47;;;;;;;17.72;100.00;99109.70;5191858;55;1139092;-66
2023/08/01 07:06:10;;;;;;;6.87;2.98;;;;;;;17.68;100.00;99107.92;5163030;55;1138929;-66
2023/08/01 07:11:15;;;;;;;9.28;4.75;;;;;;;17.64;100.00;99107.17;5173882;56;1138721;-66
2023/08/01 07:16:21;;;;;;;5.83;3.90;;;;;;;17.67;100.00;99104.11;5080117;56;1138459;-66
2023/08/01 07:21:27;;;;;;;7.95;4.08;;;;;;;17.74;100.00;99101.77;5116245;56;1138889;-66
2023/08/01 07:26:32;;;;;;;8.53;3.77;;;;;;;17.74;100.00;99093.74;5147085;56;1138816;-67
2023/08/01 07:31:38;;;;;;;7.67;3.80;;;;;;;17.87;100.00;99087.09;5093482;56;1138802;-65
2023/08/01 07:36:44;;;;;;;5.10;3.70;;;;;;;18.01;100.00;99078.63;5144954;56;1138584;-67
2023/08/01 07:41:50;;;;;;;9.23;4.20;;;;;;;18.11;100.00;99072.37;5137047;56;1139296;-66
2023/08/01 07:46:55;;;;;;;6.85;4.62;;;;;;;18.17;100.00;99063.55;5148222;57;1138829;-66
2023/08/01 07:52:01;;;;;;;8.78;4.28;;;;;;;18.32;100.00;99066.03;5102047;56;1138772;-65
2023/08/01 07:57:07;;;;;;;5.83;3.70;;;;;;;18.32;100.00;99053.98;5092259;56;1138953;-65
2023/08/01 08:02:12;;;;;;;6.47;3.47;;;;;;;18.35;100.00;99058.91;5127451;56;1139116;-66
2023/08/01 08:07:18;;;;;;;7.50;3.55;;;;;;;18.49;100.00;99057.89;5031987;56;1139192;-66
2023/08/01 08:12:25;;;;;;;6.60;2.90;;;;;;;18.58;100.00;99050.01;5056282;56;1138809;-66
2023/08/01 08:17:31;;;;;;;4.15;3.15;;;;;;;18.68;100.00;99044.22;5081444;56;1138925;-66
2023/08/01 08:22:37;;;;;;;7.83;3.30;;;;;;;18.71;100.00;99041.14;5105330;56;1139279;-67
2023/08/01 08:27:42;;;;;;;5.70;3.73;;;;;;;18.72;100.00;99033.93;5051430;56;1138899;-66
2023/08/01 08:32:48;;;;;;;6.62;3.17;;;;;;;18.65;100.00;99029.91;5046388;56;1138761;-66
2023/08/01 08:37:53;;;;;;;3.62;3.25;;;;;;;18.59;100.00;99021.38;5057659;56;1139039;-66
2023/08/01 08:43:06;;;;;;;3.47;2.87;;;;;;;18.57;100.00;99026.08;5044308;57;1138841;-66
2023/08/01 08:48:16;;;;;;;5.28;3.77;;;;;;;18.55;100.00;99020.10;5016699;57;1138634;-65
2023/08/01 08:53:22;;;;;;;7.83;3.25;;;;;;;18.57;100.00;99010.02;5050580;57;1138589;-66
2023/08/01 08:58:27;;;;;;;4.85;3.45;;;;;;;18.64;100.00;99007.38;5057303;56;1138758;-66
2023/08/01 09:03:33;;;;;;;8.98;3.60;;;;;;;18.68;100.00;99000.55;4977252;57;1138749;-65
2023/08/01 09:08:41;;;;;;;7.85;3.83;;;;;;;18.73;100.00;98997.56;4994260;57;1138804;-65
2023/08/01 09:13:47;;;;;;;6.10;3.50;;;;;;;18.82;100.00;98996.30;4981075;57;1138920;-65
2023/08/01 09:18:54;;;;;;;5.25;3.10;;;;;;;18.84;100.00;98983.53;4966583;57;1138785;-65
2023/08/01 09:23:59;;;;;;;4.72;3.40;;;;;;;18.83;100.00;98984.55;5026691;57;1138956;-65
2023/08/01 09:29:05;;;;;;;6.17;3.75;;;;;;;18.82;100.00;98989.61;5052916;56;1138862;-66
2023/08/01 09:34:26;;;;;;;7.40;4.10;;;;;;;18.83;100.00;98973.84;4854643;57;1138876;-66
2023/08/01 09:39:32;;;;;;;4.65;3.10;;;;;;;18.84;100.00;98966.63;4945852;59;1138892;-65
2023/08/01 09:44:39;;;;;;;4.42;3.37;;;;;;;18.92;100.00;98954.36;5018899;56;1138538;-65
2023/08/01 09:49:52;;;;;;;4.17;3.63;;;;;;;18.93;100.00;98953.33;5038577;56;1138816;-65
2023/08/01 09:54:56;;;;;;;;;;;;;;;18.94;100.00;98948.28;5050379;56;1138622;-65
2023/08/01 10:00:03;;;;;;;6.78;3.83;;;;;;;18.92;100.00;98937.77;5154094;56;975946;-66
2023/08/01 10:05:12;;;;;;;6.33;3.30;;;;;;;18.92;100.00;98936.95;5083751;56;1136596;-66
2023/08/01 10:10:18;;;;;;;6.83;3.60;;;;;;;18.93;100.00;98935.92;4960176;57;1139245;-65
2023/08/01 10:15:25;;;;;;;5.12;3.72;;;;;;;18.89;100.00;98927.47;5055413;57;1138981;-66
2023/08/01 10:20:33;;;;;;;7.90;2.95;;;;;;;18.83;100.00;98929.64;5119419;56;1138657;-66
2023/08/01 10:25:40;;;;;;;3.20;2.90;;;;;;;18.74;100.00;98916.19;4973608;57;1148235;-66
2023/08/01 10:30:46;;;;;;;5.85;2.52;;;;;;;18.63;100.00;98924.88;5087538;56;1138833;-66
2023/08/01 10:35:53;;;;;;;5.58;2.92;;;;;;;18.53;100.00;98913.20;5084471;56;1138866;-66
2023/08/01 10:40:59;;;;;;;4.22;1.60;;;;;;;18.50;100.00;98908.27;5031633;56;1138592;-66
2023/08/01 10:46:08;;;;;;;1.62;1.52;;;;;;;18.38;100.00;98901.91;5103617;56;1138581;-64
2023/08/01 10:51:13;;;;;;;4.83;2.83;;;;;;;18.21;100.00;98898.84;5130846;56;1138777;-66
2023/08/01 10:56:20;;;;;;;2.67;1.15;;;;;;;18.11;100.00;98893.09;5045181;55;1138452;-66
2023/08/01 11:01:28;;;;;;;16.02;9.58;;;;;;;18.03;100.00;98891.95;5062939;56;1138427;-65
2023/08/01 11:06:36;;;;;;;3.60;2.80;;;;;;;18.08;100.00;98883.31;5055065;56;1140516;-65
2023/08/01 11:11:42;;;;;;;2.25;2.08;;;;;;;18.20;100.00;98874.45;5043926;56;1139155;-67
2023/08/01 11:16:49;;;;;;;3.87;2.30;;;;;;;18.33;100.00;98866.94;5042940;56;1139010;-65
2023/08/01 11:21:59;;;;;;;7.85;6.83;;;;;;;18.45;100.00;98859.08;5061122;56;1138786;-66
2023/08/01 11:27:05;;;;;;;6.10;3.17;;;;;;;18.54;100.00;98854.61;5047527;56;1138891;-65
2023/08/01 11:32:12;;;;;;;3.52;3.20;;;;;;;18.58;100.00;98845.17;5043083;56;1138477;-66
2023/08/01 11:37:20;;;;;;;4.53;4.00;;;;;;;18.65;100.00;98842.45;5064100;56;1138736;-65
2023/08/01 11:42:25;;;;;;;8.73;4.65;;;;;;;18.80;100.00;98836.31;5043310;56;1138909;-64
2023/08/01 11:47:31;;;;;;;5.03;4.17;;;;;;;18.85;100.00;98831.14;5050062;56;1138752;-64
2023/08/01 11:52:37;;;;;;;7.55;4.90;;;;;;;18.89;100.00;98830.21;5110714;56;1138728;-68
2023/08/01 11:57:45;;;;;;;7.90;5.33;;;;;;;18.90;100.00;98825.98;5086060;56;1138568;-65
2023/08/01 12:02:51;;;;;;;11.27;5.50;;;;;;;18.98;100.00;98823.55;5120017;56;1139086;-65
2023/08/01 12:07:57;;;;;;;6.63;4.63;;;;;;;19.07;100.00;98827.64;5096706;56;1140851;-64
2023/08/01 12:13:02;;;;;;;6.67;4.08;;;;;;;19.04;100.00;98827.25;5107751;56;1138985;-65
2023/08/01 12:18:08;;;;;;;4.70;2.33;;;;;;;18.97;100.00;98825.41;5109752;56;1138500;-65
2023/08/01 12:23:13;;;;;;;1.85;1.20;;;;;;;18.87;100.00;98827.73;5146029;56;1138686;-65
2023/08/01 12:28:19;;;;;;;1.22;0.98;;;;;;;18.56;100.00;98823.09;5154237;56;1138723;-66
2023/08/01 12:33:25;;;;;;;2.55;0.90;;;;;;;18.45;100.00;98825.10;5119915;56;1138751;-64
2023/08/01 12:38:31;;;;;;;3.25;1.27;;;;;;;18.16;100.00;98831.77;5148918;56;1138595;-66
2023/08/01 12:43:36;;;;;;;3.10;1.15;;;;;;;18.01;100.00;98822.33;5096441;56;1138575;-64
2023/08/01 12:48:42;;;;;;;2.50;1.10;;;;;;;18.04;100.00;98824.56;5196305;56;1138647;-64
2023/08/01 12:53:48;;;;;;;2.08;1.30;;;;;;;18.16;100.00;98822.41;5235337;56;1138426;-65
2023/08/01 12:58:53;;;;;;;1.33;1.23;;;;;;;18.29;100.00;98824.22;5098886;56;1138917;-65
2023/08/01 13:03:59;;;;;;;1.85;1.47;;;;;;;18.43;100.00;98826.34;5118349;55;1138571;-65
2023/08/01 13:09:05;;;;;;;1.70;1.60;;;;;;;18.58;100.00;98811.70;5116317;55;1138768;-67
2023/08/01 13:14:10;;;;;;;2.62;1.82;;;;;;;18.84;100.00;98823.32;5140911;55;1138681;-66
2023/08/01 13:19:16;;;;;;;3.42;1.85;;;;;;;19.45;100.00;98819.55;5164121;56;1138817;-65
2023/08/01 13:24:21;;;;;;;1.60;1.50;;;;;;;19.45;100.00;98819.55;5138486;56;1138697;-65
2023/08/01 13:29:27;;;;;;;1.47;1.10;;;;;;;19.44;100.00;98835.34;5092938;56;1138554;-65
2023/08/01 13:34:33;;;;;;;2.72;0.93;;;;;;;19.16;100.00;98836.24;5100687;55;1139016;-66
2023/08/01 13:39:38;;;;;;;1.75;1.05;;;;;;;19.03;100.00;98838.48;5197383;55;1138919;-67
2023/08/01 13:44:44;;;;;;;0.80;0.80;;;;;;;19.00;100.00;98854.16;5134189;56;1138999;-66
2023/08/01 13:49:50;;;;;;;0.72;0.72;;;;;;;19.02;100.00;98844.05;5082839;56;1139093;-66
2023/08/01 13:54:55;;;;;;;1.87;1.02;;;;;;;19.26;100.00;98846.79;5102085;56;1138904;-65
2023/08/01 14:00:01;;;;;;;1.10;1.10;;;;;;;19.59;100.00;98838.55;5053632;57;1138467;-65
2023/08/01 14:05:09;;;;;;;0.78;0.78;;;;;;;19.87;100.00;98832.75;5076974;57;1139469;-66
2023/08/01 14:10:15;;;;;;;1.33;0.90;;;;;;;20.10;100.00;98833.48;5068514;56;1138538;-66
2023/08/01 14:15:20;;;;;;;1.43;0.90;;;;;;;20.32;100.00;98840.05;5044032;56;1138675;-65
2023/08/01 14:20:26;;;;;;;0.80;0.80;;;;;;;20.52;100.00;98826.45;5093596;56;1138736;-65
2023/08/01 14:25:32;;;;;;;0.50;0.50;;;;;;;20.52;100.00;98834.51;5092281;56;1138687;-65
2023/08/01 14:30:37;;;;;;;2.72;0.75;;;;;;;20.58;100.00;98846.23;4956426;57;1138888;-65
2023/08/01 14:35:43;;;;;;;0.78;0.78;;;;;;;20.56;100.00;98851.83;5128151;56;1138851;-66
2023/08/01 14:40:49;;;;;;;0.90;0.90;;;;;;;20.50;100.00;98859.42;5128079;56;1138982;-67
2023/08/01 14:45:54;;;;;;;3.30;0.93;;;;;;;20.41;100.00;98846.53;5148143;56;1138972;-65
2023/08/01 14:51:00;;;;;;;1.05;1.05;;;;;;;20.40;100.00;98847.56;5127687;55;1138897;-65
2023/08/01 14:56:08;;;;;;;1.50;1.05;;;;;;;20.38;100.00;98843.76;5054672;57;1138982;-66
2023/08/01 15:01:18;;;;;;;1.00;1.00;;;;;;;20.35;100.00;98855.73;5074294;57;1138899;-65
2023/08/01 15:06:25;;;;;;;2.00;1.20;;;;;;;20.33;100.00;98845.73;5050479;57;1138603;-66
2023/08/01 15:11:31;;;;;;;1.27;1.17;;;;;;;20.46;100.00;98852.88;5065840;56;1138671;-66
2023/08/01 15:16:38;;;;;;;2.47;2.27;;;;;;;20.65;100.00;98850.99;5074460;56;1138730;-66
2023/08/01 15:21:45;;;;;;;3.95;1.40;;;;;;;20.76;100.00;98867.73;5054382;56;1138658;-65
2023/08/01 15:26:51;;;;;;;4.35;1.20;;;;;;;20.72;100.00;98874.59;5074932;56;1138715;-68
2023/08/01 15:31:56;;;;;;;4.85;1.60;;;;;;;20.68;100.00;98866.15;5120105;56;1138482;-66
2023/08/01 15:37:02;;;;;;;1.35;1.35;;;;;;;20.66;100.00;98851.30;5159696;56;1138581;-67
2023/08/01 15:42:09;;;;;;;4.02;1.30;;;;;;;20.78;100.00;98823.17;5150868;56;1138582;-68
2023/08/01 15:47:14;;;;;;;1.55;1.35;;;;;;;20.95;100.00;98851.04;5106316;56;1138594;-68
2023/08/01 15:52:20;;;;;;;2.65;2.02;;;;;;;21.05;100.00;98858.06;5095956;56;1139065;-66
2023/08/01 15:57:26;;;;;;;2.15;1.10;;;;;;;21.01;100.00;98864.41;5063828;56;1138774;-67
2023/08/01 16:02:31;;;;;;;1.40;1.30;;;;;;;20.91;100.00;98888.84;5053404;56;1138833;-67
2023/08/01 16:07:40;;;;;;;1.22;1.22;;;;;;;20.83;100.00;98881.06;5070459;56;1139013;-66
2023/08/01 16:12:45;;;;;;;2.00;1.30;;;;;;;20.76;100.00;98879.00;5060066;56;1138689;-65
2023/08/01 16:17:52;;;;;;;2.12;1.50;;;;;;;20.74;100.00;98885.94;5064764;56;1138915;-67
2023/08/01 16:22:58;;;;;;;1.95;1.50;;;;;;;20.69;100.00;98881.75;5076770;56;1138706;-65
2023/08/01 16:28:03;;;;;;;0.80;0.80;;;;;;;20.74;100.00;98877.05;5096326;56;1138907;-64
2023/08/01 16:33:10;;;;;;;3.25;1.00;;;;;;;20.76;100.00;98887.87;5133616;56;1138752;-66
2023/08/01 16:38:16;;;;;;;0.70;0.70;;;;;;;20.75;100.00;98898.33;5074226;56;1138802;-66
2023/08/01 16:43:23;;;;;;;1.23;1.00;;;;;;;20.69;100.00;98881.22;5087158;56;1138671;-67
2023/08/01 16:48:29;;;;;;;0.93;0.93;;;;;;;20.63;100.00;98885.31;5098757;56;1138816;-65
2023/08/01 16:53:35;;;;;;;0.88;0.80;;;;;;;20.53;100.00;98891.21;5089200;56;1138681;-65
2023/08/01 16:58:40;;;;;;;0.80;0.60;;;;;;;20.42;100.00;98894.64;5115816;56;1138699;-65
2023/08/01 17:03:46;;;;;;;4.45;0.55;;;;;;;20.39;100.00;98907.69;5108486;56;1138906;-65
2023/08/01 17:08:52;;;;;;;0.75;0.75;;;;;;;20.34;100.00;98924.42;5082900;56;1138507;-66
2023/08/01 17:13:57;;;;;;;1.90;1.03;;;;;;;20.29;100.00;98939.05;5058695;57;1138829;-65
2023/08/01 17:19:03;;;;;;;2.92;0.70;;;;;;;20.24;100.00;98943.72;5125940;56;1138597;-66
2023/08/01 17:24:11;;;;;;;1.04;0.76;;;;;;;20.20;100.00;98935.80;5141076;56;1138451;-67
2023/08/01 17:29:16;;;;;;;1.30;0.83;;;;;;;20.14;100.00;98942.58;5094172;56;1138830;-65
2023/08/01 17:34:22;;;;;;;3.08;1.35;;;;;;;20.10;100.00;98949.42;5079003;57;1139098;-64
2023/08/01 17:39:28;;;;;;;2.42;2.00;;;;;;;20.06;100.00;98958.42;5058661;56;1138892;-65
2023/08/01 17:44:34;;;;;;;0.68;0.68;;;;;;;20.00;100.00;98957.97;5076341;56;1138564;-66
2023/08/01 17:49:40;;;;;;;3.47;3.10;;;;;;;19.92;100.00;98975.14;5143849;56;1138642;-65
2023/08/01 17:54:45;;;;;;;1.27;1.27;;;;;;;19.89;100.00;98970.20;5115996;55;1138845;-65
2023/08/01 17:59:51;;;;;;;1.37;1.10;;;;;;;19.85;100.00;98978.41;5069871;56;1138961;-65
2023/08/01 18:04:57;;;;;;;1.92;1.12;;;;;;;19.81;100.00;98993.80;5105811;56;1138966;-67
2023/08/01 18:10:02;;;;;;;1.30;1.20;;;;;;;19.74;100.00;98997.02;5176139;55;1138746;-66
2023/08/01 18:15:09;;;;;;;1.20;1.10;;;;;;;19.74;100.00;99015.28;5077700;56;1139026;-65
2023/08/01 18:20:14;;;;;;;5.03;0.90;;;;;;;19.73;100.00;99006.92;5115813;56;1138864;-65
2023/08/01 18:25:20;;;;;;;1.47;0.90;;;;;;;19.70;100.00;99018.11;5133062;55;1138971;-65
2023/08/01 18:30:30;;;;;;;2.17;1.65;;;;;;;19.65;100.00;99025.97;5089774;56;1138833;-66
2023/08/01 18:35:44;;;;;;;3.67;1.22;;;;;;;19.62;100.00;99044.64;5126605;55;1138947;-66
2023/08/01 18:40:49;;;;;;;2.70;1.15;;;;;;;19.60;100.00;99052.59;5132474;55;1138966;-65
2023/08/01 18:45:57;;;;;;;4.37;0.70;;;;;;;19.56;100.00;99068.80;5148279;55;1138900;-65
2023/08/01 18:51:10;;;;;;;4.40;1.10;;;;;;;19.52;100.00;99063.58;5135287;55;1138659;-66
2023/08/01 18:56:21;;;;;;;1.20;1.20;;;;;;;19.46;100.00;99073.77;5112038;55;1143618;-66
2023/08/01 19:01:27;;;;;;;1.33;0.73;;;;;;;19.37;100.00;99071.02;5152911;55;1138703;-66
2023/08/01 19:06:32;;;;;;;1.27;0.82;;;;;;;19.32;100.00;99067.62;5150780;55;1139020;-66
2023/08/01 19:11:38;;;;;;;1.30;0.90;;;;;;;19.26;100.00;99077.83;5120062;55;1138711;-65
2023/08/01 19:16:43;;;;;;;0.93;0.90;;;;;;;19.19;100.00;99081.88;5178755;55;1138879;-65
2023/08/01 19:21:49;;;;;;;3.65;1.30;;;;;;;19.15;100.00;99080.64;5070736;56;1138669;-66
2023/08/01 19:26:54;;;;;;;3.05;0.82;;;;;;;19.09;100.00;99070.78;5105320;56;1139060;-65
2023/08/01 19:32:00;;;;;;;1.30;0.80;;;;;;;18.99;100.00;99085.10;5144519;56;1139291;-66
2023/08/01 19:37:06;;;;;;;2.74;0.90;;;;;;;18.92;100.00;99089.66;5149272;56;1138697;-65
2023/08/01 19:42:12;;;;;;;4.20;0.93;;;;;;;18.87;100.00;99101.50;5116316;56;1138703;-65
2023/08/01 19:47:18;;;;;;;3.17;0.90;;;;;;;18.85;100.00;99107.06;5146217;56;1138350;-65
2023/08/01 19:52:23;;;;;;;5.78;0.90;;;;;;;18.81;100.00;99127.25;5163918;56;1138542;-65
2023/08/01 19:57:30;;;;;;;0.70;0.70;;;;;;;18.75;100.00;99126.75;5115308;56;1139092;-65
2023/08/01 20:02:39;;;;;;;3.80;1.30;;;;;;;18.73;100.00;99131.48;5115581;55;1139075;-65
2023/08/01 20:07:44;;;;;;;3.12;0.90;;;;;;;18.66;100.00;99124.46;5168056;56;1138796;-67
2023/08/01 20:12:50;;;;;;;2.80;0.70;;;;;;;18.49;100.00;99119.47;5114211;56;1139323;-66
2023/08/01 20:17:56;;;;;;;0.70;0.60;;;;;;;18.31;100.00;99127.28;5093763;56;1138781;-66
2023/08/01 20:23:01;;;;;;;0.55;0.55;;;;;;;18.12;100.00;99146.77;5072862;56;1139307;-65
2023/08/01 20:28:07;;;;;;;0.50;0.50;;;;;;;17.93;100.00;99147.01;5116039;56;1138980;-66
2023/08/01 20:33:12;;;;;;;0.88;0.72;;;;;;;17.84;100.00;99147.70;5122498;56;1138886;-66
2023/08/01 20:38:18;;;;;;;1.05;0.65;;;;;;;17.69;100.00;99157.71;5078763;57;1138751;-65
2023/08/01 20:43:33;;;;;;;2.92;0.80;;;;;;;17.63;100.00;99172.34;5116798;56;1138636;-65
2023/08/01 20:48:39;;;;;;;2.98;0.80;;;;;;;17.51;100.00;99173.41;5188992;56;1138854;-65
2023/08/01 20:53:44;;;;;;;1.32;0.85;;;;;;;17.40;100.00;99176.13;5162172;56;1139245;-66
2023/08/01 20:58:50;;;;;;;1.10;0.60;;;;;;;17.30;100.00;99178.80;5134396;56;1139126;-65
2023/08/01 21:03:56;;;;;;;5.90;2.67;;;;;;;17.22;100.00;99186.47;5110091;56;1138630;-66
2023/08/01 21:09:01;;;;;;;0.70;0.70;;;;;;;17.10;100.00;99196.03;5117463;56;1139324;-65
2023/08/01 21:14:07;;;;;;;0.82;0.82;;;;;;;17.01;100.00;99203.86;5062015;57;1138848;-66
2023/08/01 21:19:13;;;;;;;5.55;0.75;;;;;;;16.91;100.00;99214.88;5127935;56;1138562;-65
2023/08/01 21:24:18;;;;;;;0.80;0.80;;;;;;;16.79;100.00;99217.23;5125385;56;1138882;-65
2023/08/01 21:29:24;;;;;;;0.90;0.90;;;;;;;16.73;100.00;99203.80;5087757;56;1138823;-65
2023/08/01 21:34:30;;;;;;;2.22;0.95;;;;;;;16.66;100.00;99195.72;5068499;56;1138904;-65
2023/08/01 21:39:35;;;;;;;2.20;0.60;;;;;;;16.64;100.00;99208.45;5126234;56;1139034;-65
2023/08/01 21:44:41;;;;;;;2.83;1.12;;;;;;;16.65;100.00;99202.06;5065334;56;1139063;-65
2023/08/01 21:49:47;;;;;;;3.70;1.25;;;;;;;16.66;100.00;99198.89;5043569;57;1138787;-66
2023/08/01 21:54:53;;;;;;;1.40;0.93;;;;;;;16.69;100.00;99199.86;5043697;56;1138710;-65
2023/08/01 21:59:58;;;;;;;5.17;0.90;;;;;;;16.67;100.00;99202.70;5043309;56;1138853;-65
2023/08/01 22:05:05;;;;;;;6.07;1.37;;;;;;;16.64;100.00;99211.62;5063109;56;1138966;-66
2023/08/01 22:10:11;;;;;;;1.30;1.20;;;;;;;16.59;100.00;99214.00;5043417;56;1138681;-66
2023/08/01 22:15:16;;;;;;;0.70;0.70;;;;;;;16.56;100.00;99225.05;5043976;56;1138826;-66
2023/08/01 22:20:23;;;;;;;7.40;1.30;;;;;;;16.52;100.00;99231.27;5063653;56;1138494;-66
2023/08/01 22:25:28;;;;;;;1.30;1.20;;;;;;;16.47;100.00;99239.03;5056701;56;1138589;-66
2023/08/01 22:30:35;;;;;;;4.27;1.40;;;;;;;16.39;100.00;99233.28;5127422;56;1138783;-66
2023/08/01 22:35:41;;;;;;;2.93;1.30;;;;;;;16.30;100.00;99237.59;5147845;56;1138470;-66
2023/08/01 22:40:46;;;;;;;2.25;1.15;;;;;;;16.27;100.00;99241.96;5047465;56;1138760;-66
2023/08/01 22:45:58;;;;;;;3.00;1.05;;;;;;;16.28;100.00;99237.77;5042274;57;1138897;-65
2023/08/01 22:51:03;;;;;;;4.03;1.00;;;;;;;16.29;100.00;99236.77;5043155;56;1139041;-65
2023/08/01 22:56:09;;;;;;;3.30;1.10;;;;;;;16.29;100.00;99235.94;5062547;57;1138833;-65
2023/08/01 23:01:19;;;;;;;2.83;1.03;;;;;;;16.27;100.00;99240.63;5045981;56;1139027;-65
2023/08/01 23:06:26;;;;;;;1.27;1.17;;;;;;;16.23;100.00;99242.00;5127300;55;1138892;-65
2023/08/01 23:11:31;;;;;;;2.97;0.90;;;;;;;16.20;100.00;99240.53;5159098;56;1138719;-65